createdAt,value
2023-04-27T00:00:46.362Z,1012.87
2023-04-27T00:01:46.418Z,1012.89
2023-04-27T00:02:46.533Z,1012.89
2023-04-27T00:03:46.483Z,1012.87
2023-04-27T00:04:46.631Z,1012.83
2023-04-27T00:05:46.532Z,1012.84
2023-04-27T00:06:46.437Z,1012.87
2023-04-27T00:07:46.452Z,1012.84
2023-04-27T00:08:46.465Z,1012.81
2023-04-27T00:09:46.484Z,1012.79
2023-04-27T00:10:46.487Z,1012.82
2023-04-27T00:11:46.510Z,1012.78
2023-04-27T00:12:46.544Z,1012.77
2023-04-27T00:13:46.526Z,1012.80
2023-04-27T00:14:46.575Z,1012.78
2023-04-27T00:15:46.552Z,1012.78
2023-04-27T00:16:46.601Z,1012.78
2023-04-27T00:17:46.633Z,1012.77
2023-04-27T00:18:46.593Z,1012.79
2023-04-27T00:19:46.595Z,1012.77
2023-04-27T00:20:46.612Z,1012.76
2023-04-27T00:21:46.624Z,1012.78
2023-04-27T00:22:46.632Z,1012.78
2023-04-27T00:23:46.661Z,1012.78
2023-04-27T00:24:46.657Z,1012.73
2023-04-27T00:25:46.675Z,1012.75
2023-04-27T00:26:46.682Z,1012.78
2023-04-27T00:27:46.701Z,1012.78
2023-04-27T00:28:46.712Z,1012.76
2023-04-27T00:29:46.722Z,1012.77
2023-04-27T00:30:46.741Z,1012.78
2023-04-27T00:31:46.754Z,1012.74
2023-04-27T00:32:46.788Z,1012.77
2023-04-27T00:33:46.765Z,1012.78
2023-04-27T00:34:46.777Z,1012.74
2023-04-27T00:35:46.798Z,1012.75
2023-04-27T00:36:46.809Z,1012.77
2023-04-27T00:37:46.812Z,1012.78
2023-04-27T00:38:46.830Z,1012.77
2023-04-27T00:39:46.853Z,1012.77
2023-04-27T00:40:46.849Z,1012.76
2023-04-27T00:41:46.863Z,1012.79
2023-04-27T00:42:46.875Z,1012.82
2023-04-27T00:43:46.896Z,1012.81
2023-04-27T00:44:46.910Z,1012.81
2023-04-27T00:45:46.935Z,1012.82
2023-04-27T00:46:46.923Z,1012.84
2023-04-27T00:47:46.988Z,1012.81
2023-04-27T00:48:46.947Z,1012.83
2023-04-27T00:49:46.963Z,1012.87
2023-04-27T00:50:46.970Z,1012.86
2023-04-27T00:51:46.984Z,1012.84
2023-04-27T00:52:46.995Z,1012.88
2023-04-27T00:53:47.009Z,1012.87
2023-04-27T00:54:47.019Z,1012.90
2023-04-27T00:55:47.034Z,1012.88
2023-04-27T00:56:47.043Z,1012.91
2023-04-27T00:57:47.055Z,1012.94
2023-04-27T00:58:47.069Z,1012.93
2023-04-27T00:59:47.081Z,1012.91
2023-04-27T01:00:47.093Z,1012.90
2023-04-27T01:01:47.216Z,1012.91
2023-04-27T01:02:47.272Z,1012.90
2023-04-27T01:03:47.272Z,1012.92
2023-04-27T01:04:47.144Z,1012.95
2023-04-27T01:05:47.157Z,1012.96
2023-04-27T01:06:47.175Z,1012.94
2023-04-27T01:07:47.177Z,1012.99
2023-04-27T01:08:47.184Z,1012.96
2023-04-27T01:09:47.202Z,1012.99
2023-04-27T01:10:47.217Z,1012.95
2023-04-27T01:11:47.221Z,1013.01
2023-04-27T01:12:47.238Z,1012.98
2023-04-27T01:13:47.246Z,1012.97
2023-04-27T01:14:47.260Z,1012.95
2023-04-27T01:15:47.270Z,1012.96
2023-04-27T01:16:47.308Z,1012.97
2023-04-27T01:17:47.326Z,1012.93
2023-04-27T01:18:47.308Z,1012.99
2023-04-27T01:19:47.322Z,1012.96
2023-04-27T01:20:47.330Z,1012.93
2023-04-27T01:21:47.343Z,1012.96
2023-04-27T01:22:47.353Z,1012.98
2023-04-27T01:23:47.389Z,1012.99
2023-04-27T01:24:47.383Z,1012.99
2023-04-27T01:25:47.422Z,1013.00
2023-04-27T01:26:47.405Z,1012.99
2023-04-27T01:27:47.413Z,1013.01
2023-04-27T01:28:47.435Z,1012.98
2023-04-27T01:29:47.439Z,1012.96
2023-04-27T01:30:47.453Z,1012.96
2023-04-27T01:31:47.659Z,1012.99
2023-04-27T01:32:47.490Z,1013.01
2023-04-27T01:33:47.490Z,1013.02
2023-04-27T01:34:47.498Z,1013.04
2023-04-27T01:35:47.513Z,1013.00
2023-04-27T01:36:47.520Z,1013.03
2023-04-27T01:37:47.534Z,1013.02
2023-04-27T01:38:47.558Z,1013.05
2023-04-27T01:39:47.576Z,1013.06
2023-04-27T01:40:47.577Z,1013.08
2023-04-27T01:41:47.586Z,1013.09
2023-04-27T01:42:47.598Z,1013.13
2023-04-27T01:43:47.613Z,1013.09
2023-04-27T01:44:47.620Z,1013.13
2023-04-27T01:45:47.636Z,1013.16
2023-04-27T01:46:47.731Z,1013.13
2023-04-27T01:47:47.685Z,1013.13
2023-04-27T01:48:47.675Z,1013.19
2023-04-27T01:49:47.678Z,1013.16
2023-04-27T01:50:47.699Z,1013.16
2023-04-27T01:51:47.741Z,1013.12
2023-04-27T01:52:47.749Z,1013.14
2023-04-27T01:53:47.731Z,1013.22
2023-04-27T01:54:47.741Z,1013.17
2023-04-27T01:55:47.759Z,1013.18
2023-04-27T01:56:47.768Z,1013.28
2023-04-27T01:57:47.804Z,1013.26
2023-04-27T01:58:47.795Z,1013.26
2023-04-27T01:59:47.805Z,1013.23
2023-04-27T02:00:47.824Z,1013.25
2023-04-27T02:01:47.834Z,1013.22
2023-04-27T02:02:47.979Z,1013.27
2023-04-27T02:03:47.954Z,1013.23
2023-04-27T02:04:47.964Z,1013.31
2023-04-27T02:05:47.880Z,1013.28
2023-04-27T02:06:47.887Z,1013.35
2023-04-27T02:07:47.900Z,1013.35
2023-04-27T02:08:47.911Z,1013.40
2023-04-27T02:09:47.946Z,1013.36
2023-04-27T02:10:47.934Z,1013.35
2023-04-27T02:11:47.944Z,1013.37
2023-04-27T02:12:47.956Z,1013.36
2023-04-27T02:13:48.018Z,1013.40
2023-04-27T02:14:47.979Z,1013.37
2023-04-27T02:15:48.047Z,1013.37
2023-04-27T02:16:48.007Z,1013.39
2023-04-27T02:17:48.085Z,1013.36
2023-04-27T02:18:48.025Z,1013.42
2023-04-27T02:19:48.055Z,1013.43
2023-04-27T02:20:48.056Z,1013.41
2023-04-27T02:21:48.066Z,1013.43
2023-04-27T02:22:48.069Z,1013.42
2023-04-27T02:23:48.089Z,1013.41
2023-04-27T02:24:48.093Z,1013.42
2023-04-27T02:25:48.106Z,1013.47
2023-04-27T02:26:48.121Z,1013.46
2023-04-27T02:27:48.130Z,1013.49
2023-04-27T02:28:48.156Z,1013.48
2023-04-27T02:29:48.168Z,1013.45
2023-04-27T02:30:48.162Z,1013.47
2023-04-27T02:31:48.235Z,1013.47
2023-04-27T02:32:48.230Z,1013.43
2023-04-27T02:33:48.221Z,1013.49
2023-04-27T02:34:48.212Z,1013.50
2023-04-27T02:35:48.226Z,1013.47
2023-04-27T02:36:48.236Z,1013.47
2023-04-27T02:37:48.245Z,1013.46
2023-04-27T02:38:48.266Z,1013.49
2023-04-27T02:39:48.273Z,1013.48
2023-04-27T02:40:48.281Z,1013.45
2023-04-27T02:41:48.299Z,1013.49
2023-04-27T02:42:48.331Z,1013.49
2023-04-27T02:43:48.313Z,1013.49
2023-04-27T02:44:48.333Z,1013.50
2023-04-27T02:45:48.340Z,1013.50
2023-04-27T02:46:48.371Z,1013.47
2023-04-27T02:47:48.415Z,1013.45
2023-04-27T02:48:48.381Z,1013.44
2023-04-27T02:49:48.385Z,1013.46
2023-04-27T02:50:48.404Z,1013.48
2023-04-27T02:51:48.407Z,1013.49
2023-04-27T02:52:48.422Z,1013.50
2023-04-27T02:53:48.436Z,1013.50
2023-04-27T02:54:48.453Z,1013.50
2023-04-27T02:55:48.472Z,1013.52
2023-04-27T02:56:48.465Z,1013.47
2023-04-27T02:57:48.482Z,1013.55
2023-04-27T02:58:48.488Z,1013.56
2023-04-27T02:59:48.513Z,1013.55
2023-04-27T03:00:48.929Z,1013.56
2023-04-27T03:01:48.525Z,1013.58
2023-04-27T03:02:48.629Z,1013.60
2023-04-27T03:03:48.746Z,1013.57
2023-04-27T03:04:48.604Z,1013.59
2023-04-27T03:05:48.579Z,1013.60
2023-04-27T03:06:48.581Z,1013.58
2023-04-27T03:07:48.598Z,1013.54
2023-04-27T03:08:48.624Z,1013.55
2023-04-27T03:09:48.619Z,1013.63
2023-04-27T03:10:48.641Z,1013.57
2023-04-27T03:11:48.637Z,1013.61
2023-04-27T03:12:48.653Z,1013.61
2023-04-27T03:13:48.665Z,1013.63
2023-04-27T03:14:48.677Z,1013.63
2023-04-27T03:15:48.698Z,1013.60
2023-04-27T03:16:48.833Z,1013.63
2023-04-27T03:17:48.743Z,1013.61
2023-04-27T03:18:48.720Z,1013.63
2023-04-27T03:19:48.740Z,1013.62
2023-04-27T03:20:48.747Z,1013.68
2023-04-27T03:21:48.759Z,1013.68
2023-04-27T03:22:48.769Z,1013.71
2023-04-27T03:23:48.781Z,1013.77
2023-04-27T03:24:48.790Z,1013.71
2023-04-27T03:25:48.809Z,1013.72
2023-04-27T03:26:48.817Z,1013.71
2023-04-27T03:27:48.845Z,1013.65
2023-04-27T03:28:48.838Z,1013.69
2023-04-27T03:29:48.853Z,1013.72
2023-04-27T03:30:48.861Z,1013.68
2023-04-27T03:31:48.935Z,1013.71
2023-04-27T03:32:48.919Z,1013.71
2023-04-27T03:33:48.895Z,1013.73
2023-04-27T03:34:48.906Z,1013.74
2023-04-27T03:35:48.918Z,1013.77
2023-04-27T03:36:48.932Z,1013.75
2023-04-27T03:37:48.945Z,1013.76
2023-04-27T03:38:48.967Z,1013.78
2023-04-27T03:39:48.972Z,1013.76
2023-04-27T03:40:48.980Z,1013.78
2023-04-27T03:41:48.988Z,1013.78
2023-04-27T03:42:49.008Z,1013.80
2023-04-27T03:43:49.010Z,1013.79
2023-04-27T03:44:49.021Z,1013.79
2023-04-27T03:45:49.083Z,1013.83
2023-04-27T03:46:49.050Z,1013.80
2023-04-27T03:47:49.104Z,1013.87
2023-04-27T03:48:49.070Z,1013.87
2023-04-27T03:49:49.081Z,1013.87
2023-04-27T03:50:49.089Z,1013.85
2023-04-27T03:51:49.099Z,1013.87
2023-04-27T03:52:49.114Z,1013.86
2023-04-27T03:53:49.130Z,1013.86
2023-04-27T03:54:49.140Z,1013.87
2023-04-27T03:55:49.152Z,1013.90
2023-04-27T03:56:49.165Z,1013.92
2023-04-27T03:57:49.175Z,1013.94
2023-04-27T03:58:49.186Z,1013.95
2023-04-27T03:59:49.197Z,1013.96
2023-04-27T04:00:49.207Z,1013.96
2023-04-27T04:01:49.292Z,1013.98
2023-04-27T04:02:49.401Z,1014.00
2023-04-27T04:03:49.349Z,1014.00
2023-04-27T04:04:49.316Z,1014.02
2023-04-27T04:05:49.270Z,1014.06
2023-04-27T04:06:49.276Z,1014.04
2023-04-27T04:07:49.292Z,1014.05
2023-04-27T04:08:49.304Z,1014.08
2023-04-27T04:09:49.310Z,1014.06
2023-04-27T04:10:49.333Z,1014.05
2023-04-27T04:11:49.337Z,1014.03
2023-04-27T04:12:49.348Z,1014.04
2023-04-27T04:13:49.355Z,1014.06
2023-04-27T04:14:49.378Z,1014.04
2023-04-27T04:15:49.434Z,1014.07
2023-04-27T04:16:49.394Z,1014.09
2023-04-27T04:17:49.486Z,1014.10
2023-04-27T04:18:49.418Z,1014.17
2023-04-27T04:19:49.435Z,1014.13
2023-04-27T04:20:49.444Z,1014.15
2023-04-27T04:21:49.450Z,1014.14
2023-04-27T04:22:49.469Z,1014.19
2023-04-27T04:23:49.471Z,1014.19
2023-04-27T04:24:49.493Z,1014.20
2023-04-27T04:25:49.496Z,1014.15
2023-04-27T04:26:49.512Z,1014.17
2023-04-27T04:27:49.531Z,1014.18
2023-04-27T04:28:49.529Z,1014.23
2023-04-27T04:29:49.543Z,1014.19
2023-04-27T04:30:49.553Z,1014.15
2023-04-27T04:31:49.630Z,1014.14
2023-04-27T04:32:49.632Z,1014.18
2023-04-27T04:33:49.592Z,1014.20
2023-04-27T04:34:49.607Z,1014.21
2023-04-27T04:35:49.616Z,1014.20
2023-04-27T04:36:49.626Z,1014.24
2023-04-27T04:37:49.645Z,1014.22
2023-04-27T04:38:49.647Z,1014.22
2023-04-27T04:39:49.675Z,1014.24
2023-04-27T04:40:49.674Z,1014.27
2023-04-27T04:41:49.688Z,1014.26
2023-04-27T04:42:49.694Z,1014.28
2023-04-27T04:43:49.721Z,1014.27
2023-04-27T04:44:49.717Z,1014.29
2023-04-27T04:45:49.726Z,1014.29
2023-04-27T04:46:49.839Z,1014.30
2023-04-27T04:47:49.770Z,1014.28
2023-04-27T04:48:49.767Z,1014.33
2023-04-27T04:49:49.783Z,1014.34
2023-04-27T04:50:49.789Z,1014.37
2023-04-27T04:51:49.801Z,1014.33
2023-04-27T04:52:49.822Z,1014.37
2023-04-27T04:53:49.836Z,1014.37
2023-04-27T04:54:49.837Z,1014.37
2023-04-27T04:55:49.850Z,1014.34
2023-04-27T04:56:49.863Z,1014.36
2023-04-27T04:57:49.871Z,1014.38
2023-04-27T04:58:49.880Z,1014.38
2023-04-27T04:59:49.899Z,1014.39
2023-04-27T05:00:49.906Z,1014.40
2023-04-27T05:01:49.938Z,1014.41
2023-04-27T05:02:50.069Z,1014.41
2023-04-27T05:03:50.060Z,1014.40
2023-04-27T05:04:50.082Z,1014.44
2023-04-27T05:05:49.970Z,1014.39
2023-04-27T05:06:49.982Z,1014.46
2023-04-27T05:07:49.995Z,1014.46
2023-04-27T05:08:50.015Z,1014.45
2023-04-27T05:09:50.019Z,1014.48
2023-04-27T05:10:50.032Z,1014.49
2023-04-27T05:11:50.043Z,1014.52
2023-04-27T05:12:50.055Z,1014.45
2023-04-27T05:13:50.069Z,1014.49
2023-04-27T05:14:50.081Z,1014.49
2023-04-27T05:15:50.110Z,1014.50
2023-04-27T05:16:50.101Z,1014.48
2023-04-27T05:17:50.143Z,1014.51
2023-04-27T05:18:50.150Z,1014.50
2023-04-27T05:19:50.141Z,1014.55
2023-04-27T05:20:50.155Z,1014.52
2023-04-27T05:21:50.166Z,1014.55
2023-04-27T05:22:50.193Z,1014.54
2023-04-27T05:23:50.191Z,1014.54
2023-04-27T05:24:50.206Z,1014.52
2023-04-27T05:25:50.217Z,1014.52
2023-04-27T05:26:50.228Z,1014.53
2023-04-27T05:27:50.242Z,1014.53
2023-04-27T05:28:50.260Z,1014.55
2023-04-27T05:29:50.264Z,1014.51
2023-04-27T05:30:50.279Z,1014.52
2023-04-27T05:31:50.347Z,1014.51
2023-04-27T05:32:50.339Z,1014.48
2023-04-27T05:33:50.318Z,1014.47
2023-04-27T05:34:50.331Z,1014.50
2023-04-27T05:35:50.362Z,1014.53
2023-04-27T05:36:50.365Z,1014.52
2023-04-27T05:37:50.391Z,1014.57
2023-04-27T05:38:50.384Z,1014.52
2023-04-27T05:39:50.430Z,1014.55
2023-04-27T05:40:50.425Z,1014.52
2023-04-27T05:41:50.440Z,1014.56
2023-04-27T05:42:50.432Z,1014.56
2023-04-27T05:43:50.451Z,1014.58
2023-04-27T05:44:50.469Z,1014.63
2023-04-27T05:45:50.504Z,1014.61
2023-04-27T05:46:50.510Z,1014.59
2023-04-27T05:47:50.632Z,1014.60
2023-04-27T05:48:50.517Z,1014.58
2023-04-27T05:49:50.548Z,1014.57
2023-04-27T05:50:50.546Z,1014.58
2023-04-27T05:51:50.556Z,1014.62
2023-04-27T05:52:50.576Z,1014.64
2023-04-27T05:53:50.596Z,1014.63
2023-04-27T05:54:50.609Z,1014.66
2023-04-27T05:55:50.614Z,1014.67
2023-04-27T05:56:50.630Z,1014.69
2023-04-27T05:57:57.288Z,1014.68
2023-04-27T05:58:50.654Z,1014.69
2023-04-27T05:59:50.676Z,1014.75
2023-04-27T06:00:50.689Z,1014.74
2023-04-27T06:01:50.708Z,1014.73
2023-04-27T06:02:50.805Z,1014.78
2023-04-27T06:03:50.842Z,1014.80
2023-04-27T06:04:50.760Z,1014.80
2023-04-27T06:05:50.751Z,1014.79
2023-04-27T06:06:50.770Z,1014.79
2023-04-27T06:07:50.785Z,1014.82
2023-04-27T06:08:50.806Z,1014.81
2023-04-27T06:09:50.813Z,1014.80
2023-04-27T06:10:50.821Z,1014.85
2023-04-27T06:11:50.837Z,1014.87
2023-04-27T06:12:50.857Z,1014.86
2023-04-27T06:13:50.866Z,1014.91
2023-04-27T06:14:50.880Z,1014.93
2023-04-27T06:15:50.933Z,1014.94
2023-04-27T06:16:50.917Z,1014.90
2023-04-27T06:17:50.965Z,1014.90
2023-04-27T06:18:50.942Z,1014.87
2023-04-27T06:19:50.955Z,1014.85
2023-04-27T06:20:50.972Z,1014.85
2023-04-27T06:21:50.991Z,1014.88
2023-04-27T06:22:51.012Z,1014.88
2023-04-27T06:23:51.012Z,1014.81
2023-04-27T06:24:51.029Z,1014.80
2023-04-27T06:25:51.446Z,1014.86
2023-04-27T06:26:51.081Z,1014.88
2023-04-27T06:27:51.074Z,1014.91
2023-04-27T06:28:51.096Z,1014.89
2023-04-27T06:29:51.103Z,1014.85
2023-04-27T06:30:51.120Z,1014.94
2023-04-27T06:31:51.195Z,1014.92
2023-04-27T06:32:51.172Z,1014.99
2023-04-27T06:33:51.167Z,1014.95
2023-04-27T06:34:51.184Z,1015.01
2023-04-27T06:35:51.205Z,1014.87
2023-04-27T06:36:51.214Z,1014.82
2023-04-27T06:37:51.232Z,1014.95
2023-04-27T06:38:51.247Z,1014.88
2023-04-27T06:39:51.264Z,1014.93
2023-04-27T06:40:51.280Z,1014.90
2023-04-27T06:41:51.295Z,1014.92
2023-04-27T06:42:51.310Z,1014.97
2023-04-27T06:43:51.333Z,1014.98
2023-04-27T06:44:51.345Z,1014.92
2023-04-27T06:45:51.387Z,1014.95
2023-04-27T06:46:51.377Z,1014.93
2023-04-27T06:47:51.476Z,1015.00
2023-04-27T06:48:51.415Z,1015.03
2023-04-27T06:49:51.463Z,1015.08
2023-04-27T06:50:51.444Z,1015.04
2023-04-27T06:51:51.458Z,1015.00
2023-04-27T06:52:51.501Z,1015.00
2023-04-27T06:53:51.492Z,1014.94
2023-04-27T06:54:51.527Z,1014.99
2023-04-27T06:55:51.532Z,1015.05
2023-04-27T06:56:51.544Z,1015.03
2023-04-27T06:57:51.566Z,1015.05
2023-04-27T06:58:51.574Z,1015.02
2023-04-27T06:59:51.592Z,1015.01
2023-04-27T07:00:51.617Z,1015.04
2023-04-27T07:01:51.763Z,1015.01
2023-04-27T07:02:51.758Z,1015.02
2023-04-27T07:03:51.894Z,1014.96
2023-04-27T07:04:51.725Z,1015.04
2023-04-27T07:05:51.734Z,1015.09
2023-04-27T07:06:51.710Z,1015.05
2023-04-27T07:07:51.729Z,1015.03
2023-04-27T07:08:51.746Z,1015.03
2023-04-27T07:09:51.760Z,1015.00
2023-04-27T07:10:51.783Z,1015.15
2023-04-27T07:11:51.798Z,1015.09
2023-04-27T07:12:51.830Z,1015.22
2023-04-27T07:13:51.832Z,1015.25
2023-04-27T07:14:51.856Z,1015.13
2023-04-27T07:15:51.881Z,1015.14
2023-04-27T07:16:51.893Z,1015.12
2023-04-27T07:17:51.937Z,1015.11
2023-04-27T07:18:51.922Z,1015.18
2023-04-27T07:19:51.942Z,1015.17
2023-04-27T07:20:51.960Z,1015.16
2023-04-27T07:21:51.991Z,1015.22
2023-04-27T07:22:51.993Z,1015.23
2023-04-27T07:23:52.961Z,1015.12
2023-04-27T07:24:52.036Z,1015.12
2023-04-27T07:25:52.129Z,1015.17
2023-04-27T07:26:52.072Z,1015.22
2023-04-27T07:27:52.088Z,1015.15
2023-04-27T07:28:52.111Z,1015.17
2023-04-27T07:29:52.128Z,1015.12
2023-04-27T07:30:52.145Z,1015.29
2023-04-27T07:31:52.407Z,1015.16
2023-04-27T07:32:52.225Z,1015.16
2023-04-27T07:33:52.200Z,1015.07
2023-04-27T07:34:54.105Z,1015.05
2023-04-27T07:35:52.247Z,1015.07
2023-04-27T07:36:52.251Z,1015.21
2023-04-27T07:37:52.283Z,1015.13
2023-04-27T07:38:52.301Z,1015.10
2023-04-27T07:39:52.336Z,1015.05
2023-04-27T07:40:52.359Z,1015.08
2023-04-27T07:41:52.353Z,1015.10
2023-04-27T07:42:52.370Z,1015.20
2023-04-27T07:43:52.386Z,1015.18
2023-04-27T07:44:52.518Z,1015.35
2023-04-27T07:45:52.484Z,1015.32
2023-04-27T07:46:52.440Z,1015.35
2023-04-27T07:47:52.507Z,1015.32
2023-04-27T07:48:52.479Z,1015.26
2023-04-27T07:49:52.495Z,1015.29
2023-04-27T07:50:52.513Z,1015.15
2023-04-27T07:51:52.536Z,1015.15
2023-04-27T07:52:52.563Z,1015.17
2023-04-27T07:53:52.578Z,1015.26
2023-04-27T07:54:52.602Z,1015.31
2023-04-27T07:55:52.622Z,1015.36
2023-04-27T07:56:52.637Z,1015.35
2023-04-27T07:57:52.667Z,1015.41
2023-04-27T07:58:52.672Z,1015.36
2023-04-27T07:59:52.700Z,1015.35
2023-04-27T08:00:52.709Z,1015.31
2023-04-27T08:01:53.551Z,1015.36
2023-04-27T08:02:52.906Z,1015.23
2023-04-27T08:03:52.989Z,1015.25
2023-04-27T08:04:53.211Z,1015.28
2023-04-27T08:05:53.149Z,1015.34
2023-04-27T08:06:53.188Z,1015.26
2023-04-27T08:07:53.211Z,1015.34
2023-04-27T08:08:52.904Z,1015.32
2023-04-27T08:09:52.892Z,1015.24
2023-04-27T08:10:52.910Z,1015.28
2023-04-27T08:11:52.929Z,1015.30
2023-04-27T08:12:52.954Z,1015.36
2023-04-27T08:13:52.966Z,1015.36
2023-04-27T08:14:52.993Z,1015.40
2023-04-27T08:15:53.005Z,1015.37
2023-04-27T08:16:53.121Z,1015.36
2023-04-27T08:17:53.096Z,1015.36
2023-04-27T08:18:53.068Z,1015.30
2023-04-27T08:19:53.093Z,1015.31
2023-04-27T08:20:53.107Z,1015.34
2023-04-27T08:21:53.120Z,1015.30
2023-04-27T08:22:53.140Z,1015.26
2023-04-27T08:23:53.163Z,1015.23
2023-04-27T08:24:53.180Z,1015.26
2023-04-27T08:25:53.203Z,1015.33
2023-04-27T08:26:53.239Z,1015.30
2023-04-27T08:27:53.247Z,1015.38
2023-04-27T08:28:53.254Z,1015.39
2023-04-27T08:29:53.277Z,1015.46
2023-04-27T08:30:53.337Z,1015.43
2023-04-27T08:31:55.717Z,1015.42
2023-04-27T08:32:53.401Z,1015.40
2023-04-27T08:33:53.346Z,1015.32
2023-04-27T08:34:53.361Z,1015.28
2023-04-27T08:35:53.380Z,1015.27
2023-04-27T08:36:53.403Z,1015.25
2023-04-27T08:37:53.422Z,1015.36
2023-04-27T08:38:53.430Z,1015.43
2023-04-27T08:39:53.461Z,1015.39
2023-04-27T08:40:53.470Z,1015.41
2023-04-27T08:41:53.494Z,1015.42
2023-04-27T08:42:53.497Z,1015.46
2023-04-27T08:43:53.514Z,1015.46
2023-04-27T08:44:53.530Z,1015.46
2023-04-27T08:45:53.598Z,1015.45
2023-04-27T08:46:53.681Z,1015.45
2023-04-27T08:47:53.630Z,1015.43
2023-04-27T08:48:53.607Z,1015.42
2023-04-27T08:49:53.618Z,1015.39
2023-04-27T08:50:53.648Z,1015.33
2023-04-27T08:51:53.664Z,1015.35
2023-04-27T08:52:53.675Z,1015.38
2023-04-27T08:53:53.681Z,1015.39
2023-04-27T08:54:53.697Z,1015.43
2023-04-27T08:55:53.718Z,1015.47
2023-04-27T08:56:53.744Z,1015.45
2023-04-27T08:57:53.754Z,1015.47
2023-04-27T08:58:53.768Z,1015.39
2023-04-27T08:59:53.818Z,1015.36
2023-04-27T09:00:53.800Z,1015.32
2023-04-27T09:01:53.854Z,1015.37
2023-04-27T09:02:53.944Z,1015.28
2023-04-27T09:03:53.989Z,1015.28
2023-04-27T09:04:54.092Z,1015.25
2023-04-27T09:06:04.242Z,1015.35
2023-04-27T09:06:53.901Z,1015.37
2023-04-27T09:07:53.917Z,1015.35
2023-04-27T09:08:53.936Z,1015.41
2023-04-27T09:09:53.966Z,1015.44
2023-04-27T09:10:53.972Z,1015.41
2023-04-27T09:11:53.996Z,1015.28
2023-04-27T09:12:54.003Z,1015.27
2023-04-27T09:13:54.030Z,1015.30
2023-04-27T09:14:54.037Z,1015.23
2023-04-27T09:15:54.107Z,1015.29
2023-04-27T09:16:54.098Z,1015.25
2023-04-27T09:17:54.167Z,1015.27
2023-04-27T09:18:54.106Z,1015.26
2023-04-27T09:19:54.122Z,1015.24
2023-04-27T09:20:54.142Z,1015.28
2023-04-27T09:21:54.156Z,1015.31
2023-04-27T09:22:54.175Z,1015.32
2023-04-27T09:23:54.209Z,1015.36
2023-04-27T09:24:54.218Z,1015.35
2023-04-27T09:25:54.228Z,1015.37
2023-04-27T09:26:54.249Z,1015.34
2023-04-27T09:27:54.286Z,1015.31
2023-04-27T09:28:54.286Z,1015.38
2023-04-27T09:29:54.292Z,1015.42
2023-04-27T09:30:54.309Z,1015.42
2023-04-27T09:31:54.395Z,1015.40
2023-04-27T09:32:54.380Z,1015.43
2023-04-27T09:33:54.358Z,1015.40
2023-04-27T09:34:54.376Z,1015.43
2023-04-27T09:35:54.405Z,1015.43
2023-04-27T09:36:54.410Z,1015.41
2023-04-27T09:37:54.441Z,1015.35
2023-04-27T09:38:54.446Z,1015.27
2023-04-27T09:39:54.460Z,1015.30
2023-04-27T09:40:54.474Z,1015.29
2023-04-27T09:41:54.492Z,1015.26
2023-04-27T09:42:54.512Z,1015.23
2023-04-27T09:43:55.764Z,1015.32
2023-04-27T09:44:54.556Z,1015.28
2023-04-27T09:45:54.634Z,1015.33
2023-04-27T09:46:54.579Z,1015.32
2023-04-27T09:47:54.640Z,1015.30
2023-04-27T09:48:54.612Z,1015.24
2023-04-27T09:49:54.630Z,1015.30
2023-04-27T09:50:54.650Z,1015.20
2023-04-27T09:51:54.662Z,1015.15
2023-04-27T09:52:54.684Z,1015.11
2023-04-27T09:53:54.699Z,1015.07
2023-04-27T09:54:54.744Z,1015.04
2023-04-27T09:55:54.733Z,1015.03
2023-04-27T09:56:54.751Z,1015.02
2023-04-27T09:57:54.769Z,1015.00
2023-04-27T09:58:54.794Z,1014.99
2023-04-27T09:59:54.802Z,1015.01
2023-04-27T10:00:54.837Z,1014.94
2023-04-27T10:01:54.843Z,1014.96
2023-04-27T10:02:54.924Z,1014.94
2023-04-27T10:03:55.014Z,1014.99
2023-04-27T10:04:55.000Z,1015.08
2023-04-27T10:05:54.909Z,1015.05
2023-04-27T10:06:55.908Z,1015.09
2023-04-27T10:07:54.945Z,1015.10
2023-04-27T10:08:54.967Z,1015.11
2023-04-27T10:09:54.981Z,1015.26
2023-04-27T10:10:55.003Z,1015.20
2023-04-27T10:11:55.022Z,1015.34
2023-04-27T10:12:55.047Z,1015.21
2023-04-27T10:13:55.245Z,1015.19
2023-04-27T10:14:55.083Z,1015.23
2023-04-27T10:15:55.102Z,1015.26
2023-04-27T10:16:55.167Z,1015.24
2023-04-27T10:17:55.200Z,1015.21
2023-04-27T10:18:55.160Z,1015.19
2023-04-27T10:19:57.319Z,1015.09
2023-04-27T10:20:55.207Z,1015.14
2023-04-27T10:21:55.233Z,1015.13
2023-04-27T10:22:55.250Z,1015.15
2023-04-27T10:23:55.273Z,1015.14
2023-04-27T10:24:55.310Z,1015.14
2023-04-27T10:25:55.321Z,1015.19
2023-04-27T10:26:55.345Z,1015.17
2023-04-27T10:27:55.369Z,1015.10
2023-04-27T10:28:55.398Z,1015.02
2023-04-27T10:29:55.422Z,1015.00
2023-04-27T10:30:55.500Z,1014.94
2023-04-27T10:31:55.475Z,1014.98
2023-04-27T10:32:55.569Z,1015.00
2023-04-27T10:33:55.539Z,1015.03
2023-04-27T10:34:55.551Z,1015.00
2023-04-27T10:35:55.577Z,1014.92
2023-04-27T10:36:55.609Z,1014.73
2023-04-27T10:37:55.633Z,1014.76
2023-04-27T10:38:55.666Z,1014.77
2023-04-27T10:39:55.687Z,1014.80
2023-04-27T10:40:55.720Z,1014.79
2023-04-27T10:41:55.750Z,1014.82
2023-04-27T10:42:55.772Z,1014.80
2023-04-27T10:43:55.799Z,1014.85
2023-04-27T10:44:55.826Z,1014.94
2023-04-27T10:45:55.909Z,1014.97
2023-04-27T10:46:55.881Z,1014.93
2023-04-27T10:47:55.974Z,1014.97
2023-04-27T10:48:55.927Z,1014.99
2023-04-27T10:49:55.951Z,1014.99
2023-04-27T10:50:55.983Z,1015.00
2023-04-27T10:51:56.004Z,1015.05
2023-04-27T10:52:56.025Z,1015.06
2023-04-27T10:53:56.048Z,1015.06
2023-04-27T10:54:56.077Z,1015.06
2023-04-27T10:55:56.112Z,1015.03
2023-04-27T10:56:56.118Z,1015.06
2023-04-27T10:57:56.147Z,1015.09
2023-04-27T10:58:56.176Z,1015.10
2023-04-27T10:59:56.190Z,1015.03
2023-04-27T11:00:56.214Z,1015.01
2023-04-27T11:01:56.274Z,1015.05
2023-04-27T11:02:56.356Z,1015.01
2023-04-27T11:03:56.332Z,1015.03
2023-04-27T11:04:56.364Z,1015.05
2023-04-27T11:05:58.036Z,1015.03
2023-04-27T11:06:56.361Z,1015.00
2023-04-27T11:07:56.355Z,1015.01
2023-04-27T11:08:56.431Z,1014.99
2023-04-27T11:09:56.423Z,1015.04
2023-04-27T11:10:56.416Z,1015.19
2023-04-27T11:11:56.453Z,1015.21
2023-04-27T11:12:56.463Z,1015.15
2023-04-27T11:13:56.484Z,1015.01
2023-04-27T11:14:56.494Z,1015.14
2023-04-27T11:15:56.548Z,1015.03
2023-04-27T11:16:56.541Z,1015.20
2023-04-27T11:17:56.588Z,1015.20
2023-04-27T11:18:57.918Z,1015.14
2023-04-27T11:19:56.611Z,1015.21
2023-04-27T11:20:56.632Z,1015.22
2023-04-27T11:21:56.659Z,1015.16
2023-04-27T11:22:56.682Z,1015.14
2023-04-27T11:23:56.709Z,1015.23
2023-04-27T11:24:56.728Z,1015.20
2023-04-27T11:25:56.756Z,1015.13
2023-04-27T11:26:56.792Z,1015.07
2023-04-27T11:27:56.807Z,1014.90
2023-04-27T11:28:56.861Z,1015.03
2023-04-27T11:29:56.862Z,1014.97
2023-04-27T11:30:56.891Z,1014.98
2023-04-27T11:31:56.956Z,1015.01
2023-04-27T11:32:56.964Z,1015.03
2023-04-27T11:33:56.971Z,1015.01
2023-04-27T11:34:59.102Z,1015.07
2023-04-27T11:35:57.025Z,1015.12
2023-04-27T11:37:03.780Z,1015.30
2023-04-27T11:37:57.076Z,1015.21
2023-04-27T11:38:57.181Z,1015.30
2023-04-27T11:39:57.128Z,1015.31
2023-04-27T11:40:57.155Z,1015.18
2023-04-27T11:41:57.180Z,1015.12
2023-04-27T11:42:57.205Z,1015.12
2023-04-27T11:43:57.236Z,1015.02
2023-04-27T11:44:57.274Z,1015.09
2023-04-27T11:45:57.288Z,1015.09
2023-04-27T11:46:57.352Z,1015.09
2023-04-27T11:47:57.425Z,1015.15
2023-04-27T11:48:57.367Z,1015.10
2023-04-27T11:49:57.403Z,1015.16
2023-04-27T11:50:57.419Z,1015.19
2023-04-27T11:51:57.443Z,1015.27
2023-04-27T11:52:57.471Z,1015.26
2023-04-27T11:53:57.495Z,1015.17
2023-04-27T11:54:57.522Z,1015.31
2023-04-27T11:55:57.536Z,1015.30
2023-04-27T11:56:57.563Z,1015.43
2023-04-27T11:57:57.590Z,1015.53
2023-04-27T11:58:57.613Z,1015.42
2023-04-27T11:59:57.635Z,1015.33
2023-04-27T12:00:57.659Z,1015.37
2023-04-27T12:01:57.700Z,1015.34
2023-04-27T12:02:57.863Z,1015.30
2023-04-27T12:04:00.005Z,1015.37
2023-04-27T12:04:57.851Z,1015.44
2023-04-27T12:06:04.046Z,1015.36